Time;durP1;ratioP1;P1;durP2;ratioP2;P2;SDS_P1;SDS_P2;PMS_P1;PMS_P2;Temp;Humidity;BMP_temperature;BMP_pressure;BME280_temperature;BME280_humidity;BME280_pressure;Samples;Min_cycle;Max_cycle;Signal;HPM_P1;HPM_P2
2023/08/11 00:00:47;;;;;;;0.00;0.00;;;;;;;-144.99;100.00;67352.69;5014757;28;20207;-79
2023/08/11 00:03:13;;;;;;;0.10;0.10;;;;;;;-144.99;100.00;67352.69;5014234;28;20176;-79
2023/08/11 00:05:39;;;;;;;0.10;0.10;;;;;;;-144.99;100.00;67352.69;5014362;28;20204;-79
2023/08/11 00:08:06;;;;;;;0.40;0.40;;;;;;;-144.99;100.00;67352.69;5015029;28;20247;-78
2023/08/11 00:10:35;;;;;;;0.10;0.10;;;;;;;-144.99;100.00;67352.69;5013591;28;20188;-79
2023/08/11 00:13:01;;;;;;;4.30;0.67;;;;;;;-144.99;100.00;67352.69;5014070;28;20213;-79
2023/08/11 00:15:31;;;;;;;0.10;0.10;;;;;;;-144.99;100.00;67352.69;5012937;28;20200;-80
2023/08/11 00:18:02;;;;;;;0.50;0.50;;;;;;;-144.99;100.00;67352.69;5014359;28;20331;-79
2023/08/11 00:20:28;;;;;;;0.23;0.23;;;;;;;-144.99;100.00;67352.69;5013210;28;20532;-79
2023/08/11 00:22:54;;;;;;;0.10;0.10;;;;;;;-144.99;100.00;67352.69;5012211;28;20284;-79
2023/08/11 00:25:19;;;;;;;0.00;0.00;;;;;;;-144.99;100.00;67352.69;5014282;28;20196;-79
2023/08/11 00:27:44;;;;;;;0.17;0.17;;;;;;;-144.99;100.00;67352.69;5014778;28;20192;-79
2023/08/11 00:30:10;;;;;;;0.00;0.00;;;;;;;-144.99;100.00;67352.69;5014568;28;20590;-79
2023/08/11 00:32:36;;;;;;;0.50;0.50;;;;;;;-144.99;100.00;67352.69;5013281;28;20216;-78
2023/08/11 00:35:02;;;;;;;0.00;0.00;;;;;;;-144.99;100.00;67352.69;5014549;28;20324;-78
2023/08/11 00:37:27;;;;;;;0.03;0.03;;;;;;;-144.99;100.00;67352.69;5014219;28;20184;-79
2023/08/11 00:39:53;;;;;;;0.00;0.00;;;;;;;-144.99;100.00;67352.69;5013954;28;20184;-79
2023/08/11 00:42:18;;;;;;;0.03;0.03;;;;;;;-144.99;100.00;67352.69;5013800;28;20192;-78
2023/08/11 00:44:43;;;;;;;11.97;0.50;;;;;;;-144.99;100.00;67352.69;5012802;28;20208;-79
2023/08/11 00:47:09;;;;;;;0.00;0.00;;;;;;;-144.99;100.00;67352.69;5014094;28;20212;-79
2023/08/11 00:49:35;;;;;;;0.00;0.00;;;;;;;-144.99;100.00;67352.69;5014264;28;20180;-80
2023/08/11 00:52:01;;;;;;;0.00;0.00;;;;;;;-144.99;100.00;67352.69;5013747;28;20717;-79
2023/08/11 00:54:26;;;;;;;0.33;0.33;;;;;;;-144.99;100.00;67352.69;5013606;28;20695;-80
2023/08/11 00:56:53;;;;;;;0.00;0.00;;;;;;;-144.99;100.00;67352.69;4996322;28;20671;-79
2023/08/11 00:59:19;;;;;;;0.20;0.20;;;;;;;-144.99;100.00;67352.69;5013474;28;20670;-80
2023/08/11 01:01:45;;;;;;;0.50;0.50;;;;;;;-144.99;100.00;67352.69;5014558;28;20212;-80
2023/08/11 01:04:12;;;;;;;0.00;0.00;;;;;;;-144.99;100.00;67352.69;5016145;28;20207;-80
2023/08/11 01:07:06;;;;;;;0.00;0.00;;;;;;;-144.99;100.00;67352.69;5016640;28;20258;-80
2023/08/11 01:10:06;;;;;;;0.03;0.03;;;;;;;-144.99;100.00;67352.69;5010926;28;20200;-78
2023/08/11 01:12:51;;;;;;;0.00;0.00;;;;;;;-144.99;100.00;67352.69;5016290;28;20180;-79
2023/08/11 01:15:29;;;;;;;0.00;0.00;;;;;;;-144.99;100.00;67352.69;5016705;28;20283;-79
2023/08/11 01:17:56;;;;;;;0.00;0.00;;;;;;;-144.99;100.00;67352.69;5017943;28;20556;-79
2023/08/11 01:20:23;;;;;;;0.00;0.00;;;;;;;-144.99;100.00;67352.69;5017710;28;20188;-79
2023/08/11 01:22:53;;;;;;;0.00;0.00;;;;;;;-144.99;100.00;67352.69;5017143;28;20963;-79
2023/08/11 01:25:19;;;;;;;0.00;0.00;;;;;;;-144.99;100.00;67352.69;5017945;28;20236;-79
2023/08/11 01:27:47;;;;;;;0.00;0.00;;;;;;;-144.99;100.00;67352.69;5017467;28;20216;-79
2023/08/11 01:30:14;;;;;;;0.00;0.00;;;;;;;-144.99;100.00;67352.69;5017337;28;20180;-78
2023/08/11 01:32:40;;;;;;;0.00;0.00;;;;;;;-144.99;100.00;67352.69;5016348;28;20176;-79
2023/08/11 01:35:06;;;;;;;0.00;0.00;;;;;;;-144.99;100.00;67352.69;5016899;28;20608;-79
2023/08/11 01:37:32;;;;;;;0.00;0.00;;;;;;;-144.99;100.00;67352.69;5017547;28;20719;-79
2023/08/11 01:39:58;;;;;;;0.00;0.00;;;;;;;-144.99;100.00;67352.69;5017249;28;20243;-80
2023/08/11 01:42:24;;;;;;;0.00;0.00;;;;;;;-144.99;100.00;67352.69;5016887;28;20674;-79
2023/08/11 01:44:50;;;;;;;0.00;0.00;;;;;;;-144.99;100.00;67352.69;5016066;28;20204;-79
2023/08/11 01:47:17;;;;;;;0.00;0.00;;;;;;;-144.99;100.00;67352.69;5016940;28;20271;-79
2023/08/11 01:49:42;;;;;;;0.00;0.00;;;;;;;-144.99;100.00;67352.69;5017035;28;20521;-79
2023/08/11 01:52:08;;;;;;;0.00;0.00;;;;;;;-144.99;100.00;67352.69;5015319;28;20263;-78
2023/08/11 01:54:34;;;;;;;0.00;0.00;;;;;;;-144.99;100.00;67352.69;5016420;28;20209;-79
2023/08/11 01:57:00;;;;;;;0.00;0.00;;;;;;;-144.99;100.00;67352.69;5016736;28;20188;-79
2023/08/11 01:59:25;;;;;;;0.00;0.00;;;;;;;-144.99;100.00;67352.69;5016336;28;20587;-78
2023/08/11 02:01:51;;;;;;;0.00;0.00;;;;;;;-144.99;100.00;67352.69;5016804;28;20212;-79
2023/08/11 02:04:17;;;;;;;0.00;0.00;;;;;;;-144.99;100.00;67352.69;5015935;28;20192;-79
2023/08/11 02:06:45;;;;;;;0.00;0.00;;;;;;;-144.99;100.00;67352.69;5016664;28;20215;-79
2023/08/11 02:09:12;;;;;;;0.00;0.00;;;;;;;-144.99;100.00;67352.69;5016479;28;20192;-79
2023/08/11 02:11:39;;;;;;;0.00;0.00;;;;;;;-144.99;100.00;67352.69;5015967;28;20187;-80
2023/08/11 02:14:05;;;;;;;0.00;0.00;;;;;;;-144.99;100.00;67352.69;5015607;28;20291;-80
2023/08/11 02:16:31;;;;;;;0.00;0.00;;;;;;;-144.99;100.00;67352.69;5015895;28;20278;-79
2023/08/11 02:18:56;;;;;;;0.00;0.00;;;;;;;-144.99;100.00;67352.69;5015753;28;20259;-80
2023/08/11 02:21:21;;;;;;;0.00;0.00;;;;;;;-144.99;100.00;67352.69;5016211;28;20189;-79
2023/08/11 02:23:46;;;;;;;0.00;0.00;;;;;;;-144.99;100.00;67352.69;5014087;28;20212;-79
2023/08/11 02:26:13;;;;;;;0.00;0.00;;;;;;;-144.99;100.00;67352.69;5015925;28;20216;-79
2023/08/11 02:28:38;;;;;;;0.00;0.00;;;;;;;-144.99;100.00;67352.69;5014360;28;20192;-80
2023/08/11 02:31:03;;;;;;;0.00;0.00;;;;;;;-144.99;100.00;67352.69;5016093;28;20271;-79
2023/08/11 02:33:29;;;;;;;0.00;0.00;;;;;;;-144.99;100.00;67352.69;5015389;28;20589;-79
2023/08/11 02:35:54;;;;;;;0.00;0.00;;;;;;;-144.99;100.00;67352.69;5014035;28;20183;-79
2023/08/11 02:38:19;;;;;;;0.20;0.20;;;;;;;-144.99;100.00;67352.69;5015883;28;20180;-79
2023/08/11 02:40:45;;;;;;;0.00;0.00;;;;;;;-144.99;100.00;67352.69;5015741;28;20271;-79
2023/08/11 02:43:11;;;;;;;0.00;0.00;;;;;;;-144.99;100.00;67352.69;5014608;28;20192;-80
2023/08/11 02:45:36;;;;;;;0.00;0.00;;;;;;;-144.99;100.00;67352.69;5013175;28;20244;-78
2023/08/11 02:48:01;;;;;;;0.00;0.00;;;;;;;-144.99;100.00;67352.69;5014319;28;20211;-79
2023/08/11 02:50:27;;;;;;;0.00;0.00;;;;;;;-144.99;100.00;67352.69;5013034;28;20215;-79
2023/08/11 02:52:53;;;;;;;0.00;0.00;;;;;;;-144.99;100.00;67352.69;5013418;28;20176;-79
2023/08/11 02:55:19;;;;;;;0.00;0.00;;;;;;;-144.99;100.00;67352.69;5015529;28;20189;-79
2023/08/11 02:57:45;;;;;;;0.00;0.00;;;;;;;-144.99;100.00;67352.69;5014170;28;20663;-79
2023/08/11 03:00:14;;;;;;;0.00;0.00;;;;;;;-144.99;100.00;67352.69;5014998;28;20188;-79
2023/08/11 03:02:41;;;;;;;0.00;0.00;;;;;;;-144.99;100.00;67352.69;5013408;28;20196;-79
2023/08/11 03:05:08;;;;;;;0.00;0.00;;;;;;;-144.99;100.00;67352.69;5013631;28;20213;-79
2023/08/11 03:07:37;;;;;;;0.00;0.00;;;;;;;-144.99;100.00;67352.69;5013775;28;20547;-79
2023/08/11 03:10:04;;;;;;;0.00;0.00;;;;;;;-144.99;100.00;67352.69;5013763;28;20230;-79
2023/08/11 03:12:29;;;;;;;0.00;0.00;;;;;;;-144.99;100.00;67352.69;5013100;28;20196;-79
2023/08/11 03:14:54;;;;;;;0.00;0.00;;;;;;;-144.99;100.00;67352.69;5015276;28;20243;-79
2023/08/11 03:17:20;;;;;;;0.00;0.00;;;;;;;-144.99;100.00;67352.69;5015084;28;20180;-79
2023/08/11 03:19:45;;;;;;;0.00;0.00;;;;;;;-144.99;100.00;67352.69;5013470;28;20228;-79
2023/08/11 03:22:10;;;;;;;0.00;0.00;;;;;;;-144.99;100.00;67352.69;5014691;28;20632;-79
2023/08/11 03:24:36;;;;;;;0.00;0.00;;;;;;;-144.99;100.00;67352.69;5014050;28;20200;-79
2023/08/11 03:27:01;;;;;;;0.00;0.00;;;;;;;-144.99;100.00;67352.69;5014690;28;20231;-78
2023/08/11 03:29:26;;;;;;;0.00;0.00;;;;;;;-144.99;100.00;67352.69;5014397;28;20207;-79
2023/08/11 03:31:52;;;;;;;0.00;0.00;;;;;;;-144.99;100.00;67352.69;5014638;28;20253;-79
2023/08/11 03:34:17;;;;;;;0.00;0.00;;;;;;;-144.99;100.00;67352.69;5013961;28;20208;-79
2023/08/11 03:36:44;;;;;;;0.00;0.00;;;;;;;-144.99;100.00;67352.69;5013499;28;20267;-79
2023/08/11 03:39:09;;;;;;;0.00;0.00;;;;;;;-144.99;100.00;67352.69;5013187;28;20204;-79
2023/08/11 03:41:35;;;;;;;0.00;0.00;;;;;;;-144.99;100.00;67352.69;5015034;28;20251;-79
2023/08/11 03:44:00;;;;;;;0.00;0.00;;;;;;;-144.99;100.00;67352.69;5013475;28;20280;-79
2023/08/11 03:46:25;;;;;;;0.00;0.00;;;;;;;-144.99;100.00;67352.69;5014410;28;20208;-79
2023/08/11 03:48:50;;;;;;;0.00;0.00;;;;;;;-144.99;100.00;67352.69;5014486;28;20184;-79
2023/08/11 03:51:16;;;;;;;0.00;0.00;;;;;;;-144.99;100.00;67352.69;5015157;28;20188;-79
2023/08/11 03:53:42;;;;;;;0.33;0.33;;;;;;;-144.99;100.00;67352.69;5014405;28;20731;-80
2023/08/11 03:56:07;;;;;;;0.40;0.40;;;;;;;-144.99;100.00;67352.69;5015042;28;20180;-80
2023/08/11 03:58:39;;;;;;;0.27;0.27;;;;;;;-144.99;100.00;67352.69;5014949;28;20674;-79
2023/08/11 04:01:04;;;;;;;0.00;0.00;;;;;;;-144.99;100.00;67352.69;5015348;28;20181;-79
2023/08/11 04:03:33;;;;;;;0.00;0.00;;;;;;;-144.99;100.00;67352.69;5012988;28;20184;-79
2023/08/11 04:05:59;;;;;;;0.00;0.00;;;;;;;-144.99;100.00;67352.69;5015296;28;20232;-79
2023/08/11 04:08:25;;;;;;;0.00;0.00;;;;;;;-144.99;100.00;67352.69;5015429;28;20577;-80
2023/08/11 04:10:51;;;;;;;0.00;0.00;;;;;;;-144.99;100.00;67352.69;5015356;28;20184;-78
2023/08/11 04:13:16;;;;;;;0.00;0.00;;;;;;;-144.99;100.00;67352.69;5012937;28;20195;-79
2023/08/11 04:15:42;;;;;;;0.00;0.00;;;;;;;-144.99;100.00;67352.69;5014961;28;20677;-80
2023/08/11 04:18:08;;;;;;;0.63;0.63;;;;;;;-144.99;100.00;67352.69;5014822;28;20586;-79
2023/08/11 04:20:33;;;;;;;0.10;0.10;;;;;;;-144.99;100.00;67352.69;5014956;28;20596;-79
2023/08/11 04:22:58;;;;;;;0.00;0.00;;;;;;;-144.99;100.00;67352.69;5012569;28;20247;-79
2023/08/11 04:25:24;;;;;;;0.00;0.00;;;;;;;-144.99;100.00;67352.69;5013290;28;20208;-79
2023/08/11 04:27:49;;;;;;;0.00;0.00;;;;;;;-144.99;100.00;67352.69;5013365;28;20192;-78
2023/08/11 04:30:14;;;;;;;0.00;0.00;;;;;;;-144.99;100.00;67352.69;5014688;28;20722;-78
2023/08/11 04:32:40;;;;;;;0.10;0.10;;;;;;;-144.99;100.00;67352.69;5013742;28;20275;-79
2023/08/11 04:35:07;;;;;;;0.10;0.10;;;;;;;-144.99;100.00;67352.69;5014069;28;20204;-79
2023/08/11 04:37:33;;;;;;;0.00;0.00;;;;;;;-144.99;100.00;67352.69;5014499;28;20202;-79
2023/08/11 04:39:58;;;;;;;0.00;0.00;;;;;;;-144.99;100.00;67352.69;5012876;28;20279;-79
2023/08/11 04:42:23;;;;;;;0.67;0.67;;;;;;;-144.99;100.00;67352.69;5012975;28;20180;-79
2023/08/11 04:44:49;;;;;;;0.00;0.00;;;;;;;-144.99;100.00;67352.69;5012517;28;20196;-80
2023/08/11 04:47:14;;;;;;;0.00;0.00;;;;;;;-144.99;100.00;67352.69;5014720;28;20537;-78
2023/08/11 04:49:40;;;;;;;0.00;0.00;;;;;;;-144.99;100.00;67352.69;5014408;28;20180;-79
2023/08/11 04:52:05;;;;;;;0.00;0.00;;;;;;;-144.99;100.00;67352.69;5012198;28;20191;-79
2023/08/11 04:54:30;;;;;;;0.43;0.43;;;;;;;-144.99;100.00;67352.69;5013702;28;20251;-78
2023/08/11 04:56:56;;;;;;;0.00;0.00;;;;;;;-144.99;100.00;67352.69;5014011;28;20187;-79
2023/08/11 04:59:21;;;;;;;0.00;0.00;;;;;;;-144.99;100.00;67352.69;5013071;28;20264;-79
2023/08/11 05:01:46;;;;;;;0.00;0.00;;;;;;;-144.99;100.00;67352.69;5012476;28;20194;-79
2023/08/11 05:04:12;;;;;;;0.00;0.00;;;;;;;-144.99;100.00;67352.69;5012230;28;20262;-79
2023/08/11 05:06:38;;;;;;;0.00;0.00;;;;;;;-144.99;100.00;67352.69;5013990;28;20196;-79
2023/08/11 05:09:03;;;;;;;0.00;0.00;;;;;;;-144.99;100.00;67352.69;5013697;28;20669;-80
2023/08/11 05:11:29;;;;;;;0.00;0.00;;;;;;;-144.99;100.00;67352.69;5013521;28;20180;-80
2023/08/11 05:13:55;;;;;;;0.00;0.00;;;;;;;-144.99;100.00;67352.69;5013061;28;20675;-79
2023/08/11 05:16:24;;;;;;;0.00;0.00;;;;;;;-144.99;100.00;67352.69;5014211;28;20212;-78
2023/08/11 05:18:49;;;;;;;0.00;0.00;;;;;;;-144.99;100.00;67352.69;5012690;28;20271;-80
2023/08/11 05:21:18;;;;;;;0.00;0.00;;;;;;;-144.99;100.00;67352.69;5013802;28;20350;-79
2023/08/11 05:23:43;;;;;;;0.00;0.00;;;;;;;-144.99;100.00;67352.69;5011583;28;20257;-79
2023/08/11 05:26:12;;;;;;;0.00;0.00;;;;;;;-144.99;100.00;67352.69;5013387;28;20251;-79
2023/08/11 05:28:41;;;;;;;0.00;0.00;;;;;;;-144.99;100.00;67352.69;5013580;28;20195;-80
2023/08/11 05:31:07;;;;;;;0.00;0.00;;;;;;;-144.99;100.00;67352.69;5013411;28;20192;-79
2023/08/11 05:33:33;;;;;;;0.00;0.00;;;;;;;-144.99;100.00;67352.69;5010972;28;20202;-79
2023/08/11 05:35:58;;;;;;;0.00;0.00;;;;;;;-144.99;100.00;67352.69;5013531;28;20255;-80
2023/08/11 05:38:24;;;;;;;0.00;0.00;;;;;;;-144.99;100.00;67352.69;5013567;28;20650;-79
2023/08/11 05:40:49;;;;;;;0.00;0.00;;;;;;;-144.99;100.00;67352.69;5012728;28;20709;-79
2023/08/11 05:43:15;;;;;;;0.00;0.00;;;;;;;-144.99;100.00;67352.69;5007991;28;20180;-80
2023/08/11 05:45:40;;;;;;;0.00;0.00;;;;;;;-144.99;100.00;67352.69;5012060;28;20259;-78
2023/08/11 05:48:06;;;;;;;0.10;0.10;;;;;;;-144.99;100.00;67352.69;5015760;28;20671;-79
2023/08/11 05:50:31;;;;;;;0.00;0.00;;;;;;;-144.99;100.00;67352.69;5016870;28;20185;-79
2023/08/11 05:52:56;;;;;;;0.00;0.00;;;;;;;-144.99;100.00;67352.69;5013418;28;20189;-79
2023/08/11 05:55:22;;;;;;;0.00;0.00;;;;;;;-144.99;100.00;67352.69;5012286;28;20682;-79
2023/08/11 05:57:50;;;;;;;0.00;0.00;;;;;;;-144.99;100.00;67352.69;5015682;28;20200;-79
2023/08/11 06:00:18;;;;;;;0.00;0.00;;;;;;;-144.99;100.00;67352.69;5004596;28;20188;-79
2023/08/11 06:02:46;;;;;;;0.00;0.00;;;;;;;-144.99;100.00;67352.69;5011114;28;20271;-79
2023/08/11 06:05:29;;;;;;;0.20;0.20;;;;;;;-144.99;100.00;67352.69;5009045;28;20204;-78
2023/08/11 06:07:57;;;;;;;0.00;0.00;;;;;;;-144.99;100.00;67352.69;5015749;28;20196;-79
2023/08/11 06:10:23;;;;;;;0.10;0.10;;;;;;;-144.99;100.00;67352.69;5014817;28;20181;-78
2023/08/11 06:12:48;;;;;;;0.40;0.40;;;;;;;-144.99;100.00;67352.69;5015277;28;20176;-79
2023/08/11 06:15:14;;;;;;;0.00;0.00;;;;;;;-144.99;100.00;67352.69;5016979;28;20765;-78
2023/08/11 06:17:39;;;;;;;0.00;0.00;;;;;;;-144.99;100.00;67352.69;5016180;28;20190;-79
2023/08/11 06:20:05;;;;;;;0.00;0.00;;;;;;;-144.99;100.00;67352.69;5014653;28;20639;-79
2023/08/11 06:22:31;;;;;;;0.00;0.00;;;;;;;-144.99;100.00;67352.69;5015359;28;20233;-79
2023/08/11 06:24:56;;;;;;;0.00;0.00;;;;;;;-144.99;100.00;67352.69;5019309;28;20773;-79
2023/08/11 06:27:22;;;;;;;0.00;0.00;;;;;;;-144.99;100.00;67352.69;5020174;28;20279;-79
2023/08/11 06:29:48;;;;;;;0.50;0.50;;;;;;;-144.99;100.00;67352.69;5018912;28;20184;-78
2023/08/11 06:32:13;;;;;;;0.90;0.50;;;;;;;-144.99;100.00;67352.69;5017165;28;20251;-79
2023/08/11 06:34:38;;;;;;;0.10;0.10;;;;;;;-144.99;100.00;67352.69;5013958;28;20204;-79
2023/08/11 06:37:04;;;;;;;1.20;0.40;;;;;;;-144.99;100.00;67352.69;5015999;28;20191;-79
2023/08/11 06:39:29;;;;;;;0.40;0.33;;;;;;;-144.99;100.00;67352.69;5015335;28;20620;-79
2023/08/11 06:41:55;;;;;;;0.40;0.40;;;;;;;-144.99;100.00;67352.69;5014904;28;20184;-79
2023/08/11 06:44:20;;;;;;;0.00;0.00;;;;;;;-144.99;100.00;67352.69;5012677;28;20581;-79
2023/08/11 06:46:45;;;;;;;0.17;0.17;;;;;;;-144.99;100.00;67352.69;5013992;28;20208;-79
2023/08/11 06:49:11;;;;;;;0.20;0.20;;;;;;;-144.99;100.00;67352.69;5014290;28;20214;-79
2023/08/11 06:51:36;;;;;;;1.23;0.70;;;;;;;-144.99;100.00;67352.69;5014952;28;20183;-79
2023/08/11 06:54:05;;;;;;;0.00;0.00;;;;;;;-144.99;100.00;67352.69;5013340;28;20262;-79
2023/08/11 06:56:30;;;;;;;0.80;0.40;;;;;;;-144.99;100.00;67352.69;5013790;28;20532;-79
2023/08/11 06:58:55;;;;;;;0.00;0.00;;;;;;;-144.99;100.00;67352.69;5013964;28;20204;-79
2023/08/11 07:01:21;;;;;;;0.40;0.40;;;;;;;-144.99;100.00;67352.69;5013716;28;20192;-79
2023/08/11 07:03:46;;;;;;;1.40;0.77;;;;;;;-144.99;100.00;67352.69;5012650;28;20208;-79
2023/08/11 07:06:12;;;;;;;0.30;0.30;;;;;;;-144.99;100.00;67352.69;5013628;28;20200;-80
2023/08/11 07:08:38;;;;;;;0.00;0.00;;;;;;;-144.99;100.00;67352.69;5013121;28;20275;-79
2023/08/11 07:11:04;;;;;;;0.33;0.33;;;;;;;-144.99;100.00;67352.69;5014747;28;20188;-79
2023/08/11 07:13:29;;;;;;;0.00;0.00;;;;;;;-144.99;100.00;67352.69;5012707;28;20195;-80
2023/08/11 07:15:56;;;;;;;0.10;0.10;;;;;;;-144.99;100.00;67352.69;5014294;28;20662;-80
2023/08/11 07:18:21;;;;;;;0.00;0.00;;;;;;;-144.99;100.00;67352.69;5011526;28;20188;-79
2023/08/11 07:20:47;;;;;;;0.00;0.00;;;;;;;-144.99;100.00;67352.69;5008981;28;20216;-80
2023/08/11 07:23:12;;;;;;;0.17;0.17;;;;;;;-144.99;100.00;67352.69;5013192;28;20267;-79
2023/08/11 07:25:38;;;;;;;0.00;0.00;;;;;;;-144.99;100.00;67352.69;5012029;28;20686;-79
2023/08/11 07:28:03;;;;;;;0.00;0.00;;;;;;;-144.99;100.00;67352.69;5011995;28;20196;-79
2023/08/11 07:30:30;;;;;;;0.00;0.00;;;;;;;-144.99;100.00;67352.69;5015165;28;20183;-80
2023/08/11 07:32:56;;;;;;;0.10;0.10;;;;;;;-144.99;100.00;67352.69;5013902;28;20263;-79
2023/08/11 07:35:22;;;;;;;2.57;1.30;;;;;;;-144.99;100.00;67352.69;5016052;28;20251;-79
2023/08/11 07:37:47;;;;;;;0.00;0.00;;;;;;;-144.99;100.00;67352.69;5013163;28;20610;-79
2023/08/11 07:40:12;;;;;;;0.30;0.27;;;;;;;-144.99;100.00;67352.69;5015306;28;20180;-79
2023/08/11 07:42:38;;;;;;;0.10;0.10;;;;;;;-144.99;100.00;67352.69;5015720;28;20173;-79
2023/08/11 07:45:04;;;;;;;0.00;0.00;;;;;;;-144.99;100.00;67352.69;5015846;28;20660;-79
2023/08/11 07:47:30;;;;;;;0.00;0.00;;;;;;;-144.99;100.00;67352.69;5011436;28;20181;-79
2023/08/11 07:49:55;;;;;;;0.00;0.00;;;;;;;-144.99;100.00;67352.69;5013069;28;20181;-80
2023/08/11 07:52:20;;;;;;;0.13;0.13;;;;;;;-144.99;100.00;67352.69;5013837;28;20272;-79
2023/08/11 07:54:46;;;;;;;0.00;0.00;;;;;;;-144.99;100.00;67352.69;5015376;28;20229;-80
2023/08/11 07:57:11;;;;;;;0.00;0.00;;;;;;;-144.99;100.00;67352.69;5014375;28;20184;-79
2023/08/11 07:59:36;;;;;;;0.30;0.30;;;;;;;-144.99;100.00;67352.69;5012881;28;20185;-78
2023/08/11 08:02:03;;;;;;;0.10;0.10;;;;;;;-144.99;100.00;67352.69;5012059;28;20607;-79
2023/08/11 08:04:29;;;;;;;0.00;0.00;;;;;;;-144.99;100.00;67352.69;5011677;28;20274;-79
2023/08/11 08:06:54;;;;;;;6.90;0.30;;;;;;;-144.99;100.00;67352.69;5013684;28;20259;-79
2023/08/11 08:09:19;;;;;;;0.17;0.13;;;;;;;-144.99;100.00;67352.69;5011537;28;20262;-80
2023/08/11 08:11:46;;;;;;;0.10;0.10;;;;;;;-144.99;100.00;67352.69;5012022;28;20184;-79
2023/08/11 08:14:12;;;;;;;0.20;0.20;;;;;;;-144.99;100.00;67352.69;5013138;28;20208;-79
2023/08/11 08:16:41;;;;;;;1.40;0.53;;;;;;;-144.99;100.00;67352.69;5013043;28;20201;-79
2023/08/11 08:19:07;;;;;;;0.83;0.83;;;;;;;-144.99;100.00;67352.69;5008627;28;20185;-79
2023/08/11 08:21:32;;;;;;;0.17;0.17;;;;;;;-144.99;100.00;67352.69;5013640;28;20190;-79
2023/08/11 08:23:59;;;;;;;0.00;0.00;;;;;;;-144.99;100.00;67352.69;5012497;28;20200;-79
2023/08/11 08:26:24;;;;;;;0.47;0.40;;;;;;;-144.99;100.00;67352.69;5011845;28;20215;-79
2023/08/11 08:28:50;;;;;;;0.43;0.40;;;;;;;-144.99;100.00;67352.69;5013257;28;20189;-79
2023/08/11 08:31:15;;;;;;;0.10;0.10;;;;;;;-144.99;100.00;67352.69;5011849;28;20246;-79
2023/08/11 08:33:40;;;;;;;0.00;0.00;;;;;;;-144.99;100.00;67352.69;5011128;28;20181;-79
2023/08/11 08:36:06;;;;;;;0.30;0.30;;;;;;;-144.99;100.00;67352.69;5012445;28;20217;-79
2023/08/11 08:38:32;;;;;;;0.00;0.00;;;;;;;-144.99;100.00;67352.69;5011589;28;20684;-79
2023/08/11 08:40:57;;;;;;;0.00;0.00;;;;;;;-144.99;100.00;67352.69;5013028;28;20186;-79
2023/08/11 08:43:23;;;;;;;0.10;0.10;;;;;;;-144.99;100.00;67352.69;5010822;28;20191;-79
2023/08/11 08:45:51;;;;;;;0.00;0.00;;;;;;;-144.99;100.00;67352.69;5010947;28;20203;-80
2023/08/11 08:48:28;;;;;;;0.20;0.20;;;;;;;-144.99;100.00;67352.69;5011470;28;20530;-79
2023/08/11 08:50:54;;;;;;;0.00;0.00;;;;;;;-144.99;100.00;67352.69;5012930;28;20197;-79
2023/08/11 08:53:20;;;;;;;0.00;0.00;;;;;;;-144.99;100.00;67352.69;5010429;28;20177;-80
2023/08/11 08:55:46;;;;;;;0.20;0.20;;;;;;;-144.99;100.00;67352.69;5014236;28;20251;-80
2023/08/11 08:58:13;;;;;;;0.00;0.00;;;;;;;-144.99;100.00;67352.69;5012359;28;20199;-80
2023/08/11 09:00:39;;;;;;;0.63;0.30;;;;;;;-144.99;100.00;67352.69;5014232;28;20204;-80
2023/08/11 09:03:05;;;;;;;0.63;0.30;;;;;;;-144.99;100.00;67352.69;5011620;28;20659;-80
2023/08/11 09:05:31;;;;;;;0.10;0.10;;;;;;;-144.99;100.00;67352.69;5012843;28;20258;-80
2023/08/11 09:07:57;;;;;;;0.00;0.00;;;;;;;-144.99;100.00;67352.69;5013962;28;20248;-79
2023/08/11 09:10:24;;;;;;;0.00;0.00;;;;;;;-144.99;100.00;67352.69;5012624;28;20651;-79
2023/08/11 09:12:50;;;;;;;0.20;0.20;;;;;;;-144.99;100.00;67352.69;5013379;28;20192;-79
2023/08/11 09:15:15;;;;;;;2.00;0.20;;;;;;;-144.99;100.00;67352.69;5012538;28;20204;-79
2023/08/11 09:17:41;;;;;;;0.03;0.03;;;;;;;-144.99;100.00;67352.69;5012527;28;20439;-80
2023/08/11 09:20:10;;;;;;;0.10;0.00;;;;;;;-144.99;100.00;67352.69;5013634;28;20609;-79
2023/08/11 09:22:38;;;;;;;0.10;0.10;;;;;;;-144.99;100.00;67352.69;5014734;28;20181;-78
2023/08/11 09:25:03;;;;;;;0.00;0.00;;;;;;;-144.99;100.00;67352.69;5017688;28;20192;-79
2023/08/11 09:27:30;;;;;;;0.30;0.30;;;;;;;-144.99;100.00;67352.69;5016976;28;20662;-79
2023/08/11 09:29:56;;;;;;;0.37;0.30;;;;;;;-144.99;100.00;67352.69;5016748;28;20180;-80
2023/08/11 09:32:23;;;;;;;0.30;0.30;;;;;;;-144.99;100.00;67352.69;5018375;28;20175;-78
2023/08/11 09:34:48;;;;;;;0.10;0.10;;;;;;;-144.99;100.00;67352.69;5018079;28;20693;-79
2023/08/11 09:37:13;;;;;;;0.00;0.00;;;;;;;-144.99;100.00;67352.69;5017942;28;20251;-78
2023/08/11 09:39:40;;;;;;;0.00;0.00;;;;;;;-144.99;100.00;67352.69;5015649;28;20612;-78
2023/08/11 09:42:06;;;;;;;0.00;0.00;;;;;;;-144.99;100.00;67352.69;5014739;28;20215;-79
2023/08/11 09:44:31;;;;;;;0.20;0.20;;;;;;;-144.99;100.00;67352.69;5014599;28;20203;-79
2023/08/11 09:46:56;;;;;;;4.53;0.60;;;;;;;-144.99;100.00;67352.69;5015599;28;20200;-79
2023/08/11 09:49:21;;;;;;;0.50;0.50;;;;;;;-144.99;100.00;67352.69;5016276;28;20176;-79
2023/08/11 09:51:49;;;;;;;0.00;0.00;;;;;;;-144.99;100.00;67352.69;5015606;28;20182;-79
2023/08/11 09:54:15;;;;;;;0.00;0.00;;;;;;;-144.99;100.00;67352.69;5013909;28;20201;-79
2023/08/11 09:56:42;;;;;;;0.00;0.00;;;;;;;-144.99;100.00;67352.69;5016327;28;20176;-79
2023/08/11 13:25:24;;;;;;;0.00;0.00;;;;;;;27.89;49.79;100827.19;5070583;27;21131;-81
2023/08/11 13:27:49;;;;;;;0.30;0.30;;;;;;;27.89;50.26;100830.00;5071245;28;20195;-81
2023/08/11 13:30:15;;;;;;;0.20;0.20;;;;;;;28.06;51.03;100838.19;5069339;28;20205;-81
2023/08/11 13:32:42;;;;;;;0.30;0.20;;;;;;;28.28;50.32;100827.47;5057100;28;20531;-81
2023/08/11 13:35:08;;;;;;;0.67;0.67;;;;;;;28.19;48.99;100809.50;5071541;28;20681;-80
2023/08/11 13:37:34;;;;;;;9.67;0.40;;;;;;;28.19;50.53;100820.75;5064417;28;20725;-81
2023/08/11 13:40:00;;;;;;;0.53;0.50;;;;;;;28.23;49.89;100805.44;5057802;28;20180;-81
2023/08/11 13:42:25;;;;;;;0.30;0.30;;;;;;;28.26;49.20;100806.63;5066002;28;20185;-81
2023/08/11 13:44:50;;;;;;;0.43;0.43;;;;;;;28.39;48.90;100800.03;5049179;28;20212;-81
2023/08/11 13:47:16;;;;;;;1.37;0.93;;;;;;;28.58;49.65;100811.78;5059983;28;20245;-81
2023/08/11 13:49:42;;;;;;;0.17;0.10;;;;;;;28.52;50.58;100811.47;5055477;28;20462;-81
2023/08/11 13:52:07;;;;;;;0.20;0.20;;;;;;;28.72;48.82;100805.91;5066708;28;20208;-81
2023/08/11 13:54:32;;;;;;;0.00;0.00;;;;;;;28.77;47.70;100802.59;5071208;28;20209;-81
2023/08/11 13:56:58;;;;;;;0.00;0.00;;;;;;;28.99;48.61;100805.88;5069838;28;20262;-81
2023/08/11 13:59:23;;;;;;;0.70;0.40;;;;;;;29.03;47.88;100790.53;5069180;28;20182;-81
2023/08/11 14:01:48;;;;;;;0.63;0.63;;;;;;;29.03;47.56;100793.34;5069187;28;20672;-79
2023/08/11 14:04:14;;;;;;;2.13;0.73;;;;;;;28.79;46.85;100785.31;5068936;28;20285;-78
2023/08/11 14:06:39;;;;;;;0.00;0.00;;;;;;;28.83;48.56;100788.88;5068886;28;20674;-79
2023/08/11 14:09:05;;;;;;;0.40;0.40;;;;;;;28.95;47.40;100779.84;5069175;28;20181;-79
2023/08/11 14:11:30;;;;;;;1.37;0.67;;;;;;;29.05;47.15;100790.09;5069400;28;20253;-79
2023/08/11 14:13:56;;;;;;;0.77;0.40;;;;;;;28.98;45.89;100776.16;5068928;28;20562;-79
2023/08/11 14:16:21;;;;;;;0.00;0.00;;;;;;;29.12;47.01;100784.34;5069014;28;20192;-79
2023/08/11 14:18:46;;;;;;;0.23;0.23;;;;;;;29.43;46.96;100793.41;5068538;28;20179;-79
2023/08/11 14:21:13;;;;;;;0.80;0.80;;;;;;;29.46;46.28;100777.66;5051853;28;20272;-79
2023/08/11 14:23:39;;;;;;;0.20;0.17;;;;;;;29.41;46.51;100775.34;5067291;28;20197;-79
2023/08/11 14:26:04;;;;;;;0.40;0.40;;;;;;;29.02;45.15;100763.63;5056180;28;20530;-79
2023/08/11 14:28:30;;;;;;;0.20;0.10;;;;;;;28.89;46.90;100771.09;5039116;28;20193;-79
2023/08/11 14:30:55;;;;;;;0.30;0.30;;;;;;;28.82;45.73;100768.38;5054933;28;20209;-79
2023/08/11 14:33:21;;;;;;;0.10;0.10;;;;;;;28.94;45.21;100764.97;5052200;28;20240;-79